This is the latest recevied weather packets stored in our database for station/object N9VPV. If no packets are shown the sender has not sent any weather packets the latest 10 day(s).
| Time | Temp. | Humidity | Pressure | Rain* | Wind** | Luminosity | Snow |
|---|---|---|---|---|---|---|---|
| 1777317991 | 20.56° C | 80% | 1000.9 hPa | 0 mm | - | 258 W/m² | - |
| 1777317086 | 20.56° C | 79% | 1000.5 hPa | 0 mm | - | 367 W/m² | - |
| 1777316185 | 20.56° C | 79% | 1000.4 hPa | 0 mm | - | 380 W/m² | - |
| 1777315278 | 19.44° C | 83% | 999.7 hPa | 0 mm | - | 297 W/m² | - |
| 1777314373 | 18.89° C | 85% | 999.4 hPa | 0 mm | - | 216 W/m² | - |
| 1777313473 | 18.89° C | 86% | 999.2 hPa | 0 mm | - | 185 W/m² | - |
| 1777312565 | 18.33° C | 86% | 998.9 hPa | 0 mm | - | 186 W/m² | - |
| 1777311663 | 17.78° C | 87% | 998.8 hPa | 0 mm | - | 200 W/m² | - |
| 1777310763 | 16.67° C | 89% | 999.2 hPa | 0 mm | - | 105 W/m² | - |
| 1777309863 | 16.67° C | 89% | 999.4 hPa | 0 mm | - | 0 W/m² | - |
| 1777308962 | 16.11° C | 91% | 998.9 hPa | 0 mm | - | 0 W/m² | - |
| 1777308063 | 15.56° C | 92% | 999.6 hPa | 0.25 mm | - | 0 W/m² | - |
| 1777307161 | 15.56° C | 92% | 999.4 hPa | 1.27 mm | - | 0 W/m² | - |
| 1777306258 | 15.56° C | 92% | 996.4 hPa | 2.03 mm | - | 0 W/m² | - |
| 1777305357 | 15.56° C | 92% | 999.8 hPa | 4.06 mm | - | 0 W/m² | - |
| 1777304458 | 15.56° C | 92% | 1003.5 hPa | 6.86 mm | - | 0 W/m² | - |
| 1777303554 | 15.56° C | 92% | 1006.4 hPa | 7.11 mm | - | 0 W/m² | - |
| 1777302638 | 15.56° C | 92% | 1006.6 hPa | 6.6 mm | - | 0 W/m² | - |
| 1777301738 | 15.56° C | 92% | 1007.1 hPa | 5.33 mm | - | 0 W/m² | - |
| 1777300838 | 15° C | 91% | 1006.3 hPa | 2.79 mm | - | 0 W/m² | - |
| 1777299938 | 15° C | 91% | 1005.5 hPa | 2.54 mm | - | 0 W/m² | - |
| 1777299034 | 15° C | 91% | 1003.2 hPa | 3.3 mm | - | 0 W/m² | - |
| 1777298134 | 15° C | 91% | 1001.1 hPa | 2.79 mm | - | 0 W/m² | - |
| 1777297234 | 15.56° C | 90% | 1001.3 hPa | 2.54 mm | - | 0 W/m² | - |
| 1777296334 | 15.56° C | 88% | 1005.1 hPa | 1.52 mm | - | 0 W/m² | - |
* Rain latest hour (hover to see other rain measurements)
** Current wind speed in m/s (hover to see current wind gust speed)